Main page
METAR-TAF:

METAR-TAF

Airports :

Zaqatala International Airport

Zaqatala, Azerbaijan

latitude: 41-33-44N, longitude: 46-40-02E, elevation: 330 m

Current weather observation

The report was made 1 hour and 2 minutes ago, at 03:00 UTC
Wind 4 kt from the South/Southeast
Temperature 23°C
Humidity 78%
Pressure 1016 hPa
Visibility: 8000 m
Broken clouds at a height of 7000 ft

METAR: UBBY 180300Z 15004KT 8000 BKN070 23/19 Q1016 NOSIG

Time: 08:02 (04:02 UTC)

Forecast

The report was made 2 hours and 2 minutes ago, at 02:00 UTC
Forecast valid from 18 at 03 UTC to 18 at 12 UTC
Wind 4 kt from variable directions
Visibility 10 km or more
Scattered clouds at a height of 7000 ft

TAF: UBBY 180200Z 1803/1812 VRB04KT 9999 SCT070

Weather observations and forecasts of more than 4000 airports (METAR and TAF reports).

The available stations are represented by yellow and red dots on the map.

Hover mouse over dot to see the name of the station.

Then click to see weather observations and forecasts.

To change the map : click on the green buttons with a black cross to zoom in, on the green button with a dash to zoom out, or on the green arrows for adjacent maps.


METAR-TAF: